createdAt,value
2022-09-05T00:02:00.791Z,1.50
2022-09-05T00:04:39.267Z,1.67
2022-09-05T00:07:36.022Z,1.63
2022-09-05T00:10:06.060Z,1.65
2022-09-05T00:12:37.810Z,1.50
2022-09-05T00:15:20.991Z,1.52
2022-09-05T00:19:57.335Z,1.67
2022-09-05T00:24:33.057Z,1.67
2022-09-05T00:24:42.051Z,1.75
2022-09-05T00:26:50.447Z,1.83
2022-09-05T00:29:20.422Z,1.58
2022-09-05T00:32:10.095Z,1.80
2022-09-05T00:34:47.422Z,1.60
2022-09-05T00:37:27.894Z,1.70
2022-09-05T00:40:17.354Z,1.55
2022-09-05T00:42:51.356Z,1.57
2022-09-05T00:45:28.622Z,1.60
2022-09-05T00:48:03.152Z,1.30
2022-09-05T00:50:37.484Z,1.40
2022-09-05T00:53:19.552Z,1.75
2022-09-05T00:55:53.969Z,1.63
2022-09-05T00:58:34.085Z,1.50
2022-09-05T01:01:10.758Z,1.63
2022-09-05T01:04:05.919Z,1.48
2022-09-05T01:09:07.458Z,1.48
2022-09-05T01:11:39.420Z,1.60
2022-09-05T01:14:13.370Z,1.90
2022-09-05T01:16:56.578Z,1.92
2022-09-05T01:19:32.037Z,1.97
2022-09-05T01:22:19.025Z,1.60
2022-09-05T01:24:53.088Z,1.40
2022-09-05T01:28:22.323Z,1.60
2022-09-05T01:30:46.250Z,1.35
2022-09-05T01:33:14.207Z,1.60
2022-09-05T01:36:04.165Z,1.70
2022-09-05T01:38:36.712Z,1.90
2022-09-05T01:41:19.078Z,1.75
2022-09-05T01:44:09.047Z,1.38
2022-09-05T01:46:44.784Z,1.80
2022-09-05T01:49:39.285Z,1.67
2022-09-05T01:52:07.885Z,1.70
2022-09-05T01:54:55.086Z,2.22
2022-09-05T01:57:36.645Z,2.08
2022-09-05T02:00:24.577Z,2.10
2022-09-05T02:02:56.841Z,1.75
2022-09-05T02:05:47.660Z,1.83
2022-09-05T02:08:15.904Z,1.48
2022-09-05T02:10:43.941Z,2.00
2022-09-05T02:13:30.633Z,1.90
2022-09-05T02:16:07.984Z,1.70
2022-09-05T02:18:39.581Z,2.10
2022-09-05T02:21:11.513Z,1.98
2022-09-05T02:24:00.143Z,1.60
2022-09-05T02:26:34.379Z,2.10
2022-09-05T02:29:08.075Z,1.75
2022-09-05T02:31:51.526Z,2.33
2022-09-05T02:34:31.894Z,2.10
2022-09-05T02:37:06.606Z,2.08
2022-09-05T02:45:02.920Z,2.03
2022-09-05T02:45:10.558Z,2.05
2022-09-05T02:45:26.539Z,2.08
2022-09-05T02:47:55.569Z,2.25
2022-09-05T02:54:12.878Z,2.13
2022-09-05T02:57:28.442Z,2.25
2022-09-05T02:57:35.088Z,2.65
2022-09-05T02:59:16.058Z,3.40
2022-09-05T03:02:24.910Z,2.63
2022-09-05T03:05:04.754Z,2.63
2022-09-05T03:07:42.091Z,2.85
2022-09-05T03:10:10.968Z,2.90
2022-09-05T03:12:57.646Z,3.03
2022-09-05T03:15:34.654Z,2.85
2022-09-05T03:18:21.032Z,2.55
2022-09-05T03:21:09.499Z,2.33
2022-09-05T03:23:56.649Z,2.40
2022-09-05T03:26:36.456Z,2.58
2022-09-05T03:29:04.414Z,2.65
2022-09-05T03:31:32.298Z,2.70
2022-09-05T03:34:12.829Z,2.40
2022-09-05T03:36:49.877Z,2.72
2022-09-05T03:39:20.600Z,2.13
2022-09-05T03:42:03.597Z,2.30
2022-09-05T03:44:45.352Z,3.55
2022-09-05T03:47:31.973Z,2.58
2022-09-05T03:52:58.361Z,2.30
2022-09-05T03:57:16.115Z,2.20
2022-09-05T03:57:17.339Z,2.25
2022-09-05T03:59:26.634Z,2.30
2022-09-05T04:07:32.411Z,2.60
2022-09-05T04:08:28.481Z,2.40
2022-09-05T04:08:28.551Z,2.63
2022-09-05T04:10:58.857Z,2.20
2022-09-05T04:13:30.280Z,2.60
2022-09-05T04:16:18.751Z,2.83
2022-09-05T04:18:54.013Z,3.08
2022-09-05T04:21:22.257Z,1.90
2022-09-05T04:23:50.453Z,2.30
2022-09-05T04:26:28.275Z,2.50
2022-09-05T04:29:03.285Z,2.50
2022-09-05T04:31:48.433Z,2.40
2022-09-05T04:34:21.280Z,2.40
2022-09-05T04:36:59.997Z,3.10
2022-09-05T04:39:29.204Z,2.38
2022-09-05T04:42:06.751Z,2.75
2022-09-05T04:44:37.954Z,2.17
2022-09-05T04:47:11.657Z,2.50
2022-09-05T04:49:46.613Z,2.47
2022-09-05T04:52:33.678Z,2.50
2022-09-05T04:55:10.228Z,2.67
2022-09-05T04:57:43.341Z,2.38
2022-09-05T05:01:28.236Z,2.25
2022-09-05T05:06:19.102Z,2.60
2022-09-05T05:06:30.016Z,2.63
2022-09-05T05:08:50.427Z,2.20
2022-09-05T05:17:57.194Z,2.83
2022-09-05T05:18:00.789Z,2.65
2022-09-05T05:18:12.507Z,2.90
2022-09-05T05:20:39.898Z,2.40
2022-09-05T05:22:59.834Z,2.22
2022-09-05T05:25:56.519Z,2.35
2022-09-05T05:28:40.740Z,2.60
2022-09-05T05:31:13.934Z,2.40
2022-09-05T05:33:50.301Z,2.85
2022-09-05T05:36:20.745Z,2.30
2022-09-05T05:39:22.371Z,2.47
2022-09-05T05:42:01.827Z,2.58
2022-09-05T05:44:50.116Z,2.22
2022-09-05T05:47:31.876Z,2.25
2022-09-05T05:50:11.756Z,2.53
2022-09-05T05:53:02.732Z,2.50
2022-09-05T05:55:54.833Z,2.80
2022-09-05T05:58:32.646Z,2.60
2022-09-05T06:01:21.982Z,2.17
2022-09-05T06:04:36.723Z,2.13
2022-09-05T06:07:46.679Z,2.60
2022-09-05T06:14:48.388Z,2.10
2022-09-05T06:15:07.081Z,2.40
2022-09-05T06:16:19.818Z,2.10
2022-09-05T06:19:00.674Z,2.55
2022-09-05T06:22:08.619Z,2.80
2022-09-05T06:24:31.588Z,2.78
2022-09-05T06:27:25.522Z,2.67
2022-09-05T06:30:02.816Z,2.75
2022-09-05T06:32:38.832Z,2.45
2022-09-05T06:35:21.144Z,2.58
2022-09-05T06:38:10.601Z,2.65
2022-09-05T06:40:44.922Z,3.17
2022-09-05T06:45:58.737Z,2.75
2022-09-05T06:48:45.888Z,2.38
2022-09-05T06:51:29.969Z,2.33
2022-09-05T06:53:58.159Z,2.92
2022-09-05T06:56:32.005Z,2.30
2022-09-05T06:59:17.930Z,2.08
2022-09-05T07:02:01.225Z,2.63
2022-09-05T07:05:37.628Z,2.90
2022-09-05T07:07:27.824Z,1.95
2022-09-05T07:09:57.364Z,2.38
2022-09-05T07:12:30.298Z,1.95
2022-09-05T07:15:08.357Z,2.53
2022-09-05T07:18:14.235Z,2.30
2022-09-05T07:21:17.439Z,1.95
2022-09-05T07:24:08.788Z,1.70
2022-09-05T07:26:53.587Z,1.70
2022-09-05T07:31:53.438Z,1.80
2022-09-05T07:34:25.053Z,1.80
2022-09-05T07:37:14.700Z,1.90
2022-09-05T07:39:47.678Z,1.58
2022-09-05T07:42:19.693Z,1.63
2022-09-05T07:44:53.917Z,1.75
2022-09-05T07:47:29.581Z,1.70
2022-09-05T07:55:22.074Z,1.60
2022-09-05T07:56:54.032Z,1.70
2022-09-05T07:57:09.518Z,1.58
2022-09-05T08:01:12.852Z,1.70
2022-09-05T08:03:43.377Z,2.67
2022-09-05T08:07:48.120Z,1.73
2022-09-05T08:09:49.577Z,1.75
2022-09-05T08:12:11.594Z,1.70
2022-09-05T08:14:52.812Z,1.98
2022-09-05T08:17:30.001Z,2.00
2022-09-05T08:20:08.902Z,2.50
2022-09-05T08:22:48.033Z,2.28
2022-09-05T08:25:28.748Z,2.50
2022-09-05T08:28:06.732Z,4.22
2022-09-05T08:30:40.273Z,3.67
2022-09-05T08:33:13.077Z,4.45
2022-09-05T08:35:46.428Z,4.60
2022-09-05T08:38:15.770Z,6.80
2022-09-05T08:41:05.300Z,3.20
2022-09-05T08:46:36.459Z,2.50
2022-09-05T08:46:40.243Z,3.70
2022-09-05T08:49:38.586Z,1.95
2022-09-05T08:52:11.689Z,2.33
2022-09-05T08:55:05.790Z,2.45
2022-09-05T08:57:46.927Z,4.03
2022-09-05T09:00:20.798Z,11.75
2022-09-05T09:03:07.497Z,3.97
2022-09-05T09:06:13.190Z,4.32
2022-09-05T09:08:40.119Z,4.05
2022-09-05T09:11:14.004Z,4.85
2022-09-05T09:14:00.797Z,4.28
2022-09-05T09:16:33.561Z,6.25
2022-09-05T09:19:13.540Z,2.05
2022-09-05T09:21:44.066Z,1.90
2022-09-05T09:24:18.060Z,1.83
2022-09-05T09:26:56.597Z,1.88
2022-09-05T09:29:25.686Z,2.05
2022-09-05T09:32:02.800Z,1.55
2022-09-05T09:34:32.814Z,3.45
2022-09-05T09:37:01.124Z,3.13
2022-09-05T09:39:41.763Z,1.52
2022-09-05T09:42:10.077Z,1.40
2022-09-05T09:44:47.320Z,1.40
2022-09-05T09:47:16.121Z,1.40
2022-09-05T09:50:02.217Z,1.73
2022-09-05T09:52:52.990Z,1.38
2022-09-05T09:55:41.103Z,1.17
2022-09-05T09:58:29.445Z,1.35
2022-09-05T10:01:03.312Z,1.63
2022-09-05T10:10:38.734Z,1.30
2022-09-05T10:10:46.908Z,1.02
2022-09-05T10:10:59.755Z,1.73
2022-09-05T10:13:26.761Z,1.27
2022-09-05T10:16:07.841Z,1.50
2022-09-05T10:18:51.221Z,1.83
2022-09-05T10:21:37.919Z,1.10
2022-09-05T10:24:08.786Z,1.20
2022-09-05T10:26:52.857Z,1.30
2022-09-05T10:29:36.481Z,1.13
2022-09-05T10:35:09.879Z,1.40
2022-09-05T10:35:22.192Z,1.25
2022-09-05T10:38:06.414Z,1.27
2022-09-05T10:41:13.187Z,1.10
2022-09-05T10:43:38.794Z,1.58
2022-09-05T10:46:33.897Z,1.45
2022-09-05T10:49:11.224Z,1.83
2022-09-05T10:54:26.111Z,1.42
2022-09-05T10:57:18.548Z,1.30
2022-09-05T11:02:29.728Z,1.30
2022-09-05T11:02:57.593Z,1.10
2022-09-05T11:05:38.656Z,1.00
2022-09-05T11:08:06.875Z,1.20
2022-09-05T11:10:38.254Z,1.10
2022-09-05T11:13:14.411Z,1.30
2022-09-05T11:16:03.828Z,1.42
2022-09-05T11:18:54.909Z,1.30
2022-09-05T11:21:33.657Z,1.20
2022-09-05T11:24:06.784Z,1.23
2022-09-05T11:26:38.680Z,1.37
2022-09-05T11:29:09.960Z,1.25
2022-09-05T11:32:07.123Z,1.35
2022-09-05T11:39:46.643Z,1.20
2022-09-05T11:39:47.922Z,1.33
2022-09-05T11:40:36.553Z,1.17
2022-09-05T11:43:19.791Z,1.40
2022-09-05T11:45:50.689Z,1.20
2022-09-05T11:48:18.774Z,1.20
2022-09-05T11:51:06.881Z,1.35
2022-09-05T11:53:47.008Z,1.20
2022-09-05T11:56:20.674Z,1.33
2022-09-05T11:59:04.717Z,1.25
2022-09-05T12:01:45.306Z,1.27
2022-09-05T12:04:17.057Z,1.50
2022-09-05T12:07:04.119Z,1.05
2022-09-05T12:09:55.023Z,1.20
2022-09-05T12:12:40.987Z,1.17
2022-09-05T12:15:25.264Z,1.65
2022-09-05T12:18:19.103Z,1.25
2022-09-05T12:20:53.931Z,1.50
2022-09-05T12:23:53.997Z,1.13
2022-09-05T12:29:32.903Z,1.13
2022-09-05T12:32:37.737Z,1.00
2022-09-05T12:36:12.297Z,2.22
2022-09-05T12:40:44.898Z,3.83
2022-09-05T12:41:42.950Z,1.45
2022-09-05T12:44:41.192Z,1.10
2022-09-05T12:46:57.312Z,1.20
2022-09-05T12:49:35.244Z,1.05
2022-09-05T12:52:12.902Z,0.90
2022-09-05T12:54:45.450Z,1.08
2022-09-05T13:01:19.023Z,2.00
2022-09-05T13:03:13.606Z,1.15
2022-09-05T13:03:29.078Z,1.27
2022-09-05T13:06:00.411Z,1.30
2022-09-05T13:08:39.936Z,1.48
2022-09-05T13:14:49.976Z,1.73
2022-09-05T13:14:58.213Z,1.20
2022-09-05T13:16:56.717Z,1.10
2022-09-05T13:19:37.365Z,0.80
2022-09-05T13:22:06.169Z,1.10
2022-09-05T13:24:38.556Z,1.10
2022-09-05T13:27:15.570Z,0.90
2022-09-05T13:31:12.383Z,1.10
2022-09-05T13:38:05.153Z,1.08
2022-09-05T13:38:11.251Z,1.00
2022-09-05T13:39:09.725Z,0.82
2022-09-05T13:41:44.472Z,0.93
2022-09-05T13:44:26.431Z,2.10
2022-09-05T13:47:01.184Z,1.10
2022-09-05T13:49:37.063Z,1.00
2022-09-05T13:52:27.939Z,0.65
2022-09-05T13:54:59.915Z,1.10
2022-09-05T13:57:47.041Z,0.90
2022-09-05T14:00:27.565Z,0.90
2022-09-05T14:05:54.484Z,1.63
2022-09-05T14:08:33.590Z,1.10
2022-09-05T14:11:20.196Z,1.10
2022-09-05T14:14:11.105Z,1.13
2022-09-05T14:16:54.735Z,1.00
2022-09-05T14:19:43.190Z,0.90
2022-09-05T14:22:22.136Z,1.08
2022-09-05T14:24:58.165Z,0.82
2022-09-05T14:27:32.078Z,0.90
2022-09-05T14:34:08.453Z,0.98
2022-09-05T14:37:49.607Z,1.00
2022-09-05T14:37:55.457Z,1.00
2022-09-05T14:39:00.618Z,0.80
2022-09-05T14:41:38.207Z,0.93
2022-09-05T14:44:11.076Z,1.17
2022-09-05T14:46:57.537Z,1.08
2022-09-05T14:49:34.513Z,1.00
2022-09-05T14:52:16.232Z,1.08
2022-09-05T15:02:38.106Z,1.10
2022-09-05T15:02:41.911Z,1.20
2022-09-05T15:06:28.233Z,1.20
2022-09-05T15:11:23.847Z,1.20
2022-09-05T15:12:24.945Z,0.75
2022-09-05T15:14:51.199Z,1.45
2022-09-05T15:17:24.482Z,1.00
2022-09-05T15:20:06.801Z,1.40
2022-09-05T15:22:56.095Z,1.00
2022-09-05T15:25:28.947Z,2.80
2022-09-05T15:27:57.420Z,1.27
2022-09-05T15:30:35.328Z,1.08
2022-09-05T15:33:17.747Z,1.20
2022-09-05T15:35:46.267Z,0.75
2022-09-05T15:38:26.601Z,1.00
2022-09-05T15:41:22.234Z,1.10
2022-09-05T15:44:10.813Z,1.00
2022-09-05T15:46:39.290Z,1.80
2022-09-05T15:49:12.421Z,2.10
2022-09-05T15:51:44.539Z,1.20
2022-09-05T15:54:27.031Z,1.02
2022-09-05T15:57:05.945Z,0.90
2022-09-05T15:59:47.078Z,0.90
2022-09-05T16:02:18.507Z,1.48
2022-09-05T16:10:27.108Z,1.30
2022-09-05T16:10:30.368Z,0.90
2022-09-05T16:11:07.014Z,0.95
2022-09-05T16:13:36.736Z,0.95
2022-09-05T16:22:24.583Z,1.00
2022-09-05T16:23:23.939Z,1.23
2022-09-05T16:23:25.483Z,1.52
2022-09-05T16:24:59.230Z,1.70
2022-09-05T16:27:47.583Z,1.23
2022-09-05T16:30:26.263Z,1.33
2022-09-05T16:33:03.754Z,1.02
2022-09-05T16:35:35.053Z,1.40
2022-09-05T16:38:33.148Z,1.10
2022-09-05T16:41:31.473Z,1.15
2022-09-05T16:44:10.948Z,2.33
2022-09-05T16:46:45.760Z,2.08
2022-09-05T16:49:14.269Z,1.85
2022-09-05T16:51:45.160Z,1.70
2022-09-05T16:54:31.954Z,1.30
2022-09-05T16:57:05.052Z,1.25
2022-09-05T16:59:35.578Z,1.27
2022-09-05T17:02:16.368Z,1.65
2022-09-05T17:05:04.466Z,1.30
2022-09-05T17:07:42.317Z,1.30
2022-09-05T17:10:31.288Z,1.13
2022-09-05T17:12:59.410Z,1.13
2022-09-05T17:15:39.521Z,9.75
2022-09-05T17:18:25.087Z,13.25
2022-09-05T17:20:57.700Z,8.52
2022-09-05T17:29:15.469Z,8.27
2022-09-05T17:29:24.828Z,6.05
2022-09-05T17:32:58.309Z,1.20
2022-09-05T17:35:26.836Z,1.15
2022-09-05T17:38:11.178Z,1.20
2022-09-05T17:40:43.361Z,2.45
2022-09-05T17:43:28.746Z,3.22
2022-09-05T17:46:15.716Z,2.03
2022-09-05T17:49:08.645Z,2.30
2022-09-05T17:51:38.174Z,2.88
2022-09-05T17:54:10.492Z,1.30
2022-09-05T17:56:38.444Z,1.52
2022-09-05T17:59:15.077Z,1.20
2022-09-05T18:02:03.544Z,1.45
2022-09-05T18:04:49.000Z,1.50
2022-09-05T18:07:26.491Z,1.23
2022-09-05T18:10:14.852Z,1.33
2022-09-05T18:13:12.723Z,1.65
2022-09-05T18:15:39.613Z,2.25
2022-09-05T18:18:29.942Z,2.28
2022-09-05T18:21:12.314Z,1.27
2022-09-05T18:23:54.313Z,1.40
2022-09-05T18:26:25.240Z,1.35
2022-09-05T18:31:51.788Z,1.65
2022-09-05T18:34:21.143Z,2.50
2022-09-05T18:36:55.999Z,1.95
2022-09-05T18:39:27.192Z,2.37
2022-09-05T18:42:26.537Z,1.90
2022-09-05T18:45:15.434Z,1.88
2022-09-05T18:47:59.147Z,2.20
2022-09-05T18:50:34.643Z,1.90
2022-09-05T18:53:10.548Z,1.70
2022-09-05T18:56:13.885Z,1.27
2022-09-05T18:59:09.661Z,1.95
2022-09-05T19:01:43.670Z,1.60
2022-09-05T19:04:41.023Z,2.50
2022-09-05T19:07:12.929Z,2.10
2022-09-05T19:09:58.135Z,1.65
2022-09-05T19:12:34.544Z,1.80
2022-09-05T19:15:09.074Z,1.90
2022-09-05T19:17:45.463Z,2.03
2022-09-05T19:20:32.877Z,1.48
2022-09-05T19:23:11.778Z,1.50
2022-09-05T19:25:47.652Z,1.58
2022-09-05T19:36:19.207Z,1.35
2022-09-05T19:36:57.367Z,1.50
2022-09-05T19:37:14.800Z,1.25
2022-09-05T19:44:01.945Z,1.30
2022-09-05T19:47:34.816Z,1.40
2022-09-05T19:47:52.174Z,1.65
2022-09-05T19:50:58.661Z,1.85
2022-09-05T19:53:27.420Z,1.20
2022-09-05T19:55:56.654Z,1.40
2022-09-05T19:58:25.685Z,1.70
2022-09-05T20:01:04.883Z,1.35
2022-09-05T20:03:45.580Z,1.40
2022-09-05T20:06:30.100Z,1.30
2022-09-05T20:09:16.902Z,1.55
2022-09-05T20:11:57.791Z,1.98
2022-09-05T20:14:29.164Z,1.42
2022-09-05T20:17:01.342Z,1.63
2022-09-05T20:19:32.875Z,1.30
2022-09-05T20:22:11.445Z,1.83
2022-09-05T20:24:53.318Z,1.48
2022-09-05T20:27:27.045Z,1.63
2022-09-05T20:29:58.159Z,1.75
2022-09-05T20:32:50.337Z,1.60
2022-09-05T20:41:57.491Z,1.27
2022-09-05T20:43:20.651Z,1.35
2022-09-05T20:43:25.328Z,1.52
2022-09-05T20:44:15.979Z,1.65
2022-09-05T20:54:09.538Z,1.30
2022-09-05T20:54:23.434Z,1.33
2022-09-05T20:55:39.176Z,1.75
2022-09-05T20:58:14.909Z,1.40
2022-09-05T21:01:20.370Z,1.33
2022-09-05T21:04:10.688Z,1.60
2022-09-05T21:06:41.389Z,1.60
2022-09-05T21:09:12.725Z,1.70
2022-09-05T21:11:42.171Z,1.63
2022-09-05T21:14:11.513Z,1.52
2022-09-05T21:16:49.442Z,1.60
2022-09-05T21:19:31.430Z,1.38
2022-09-05T21:22:06.168Z,1.50
2022-09-05T21:24:42.319Z,1.73
2022-09-05T21:27:26.582Z,1.55
2022-09-05T21:29:58.743Z,1.70
2022-09-05T21:32:38.235Z,1.50
2022-09-05T21:35:16.025Z,1.83
2022-09-05T21:38:01.500Z,1.50
2022-09-05T21:40:31.173Z,1.60
2022-09-05T21:47:35.833Z,1.95
2022-09-05T21:47:46.805Z,2.08
2022-09-05T21:48:39.376Z,1.75
2022-09-05T21:51:13.075Z,2.13
2022-09-05T21:59:16.739Z,1.95
2022-09-05T21:59:24.727Z,2.57
2022-09-05T21:59:45.371Z,1.65
2022-09-05T22:02:17.776Z,1.75
2022-09-05T22:04:47.099Z,1.80
2022-09-05T22:07:27.379Z,1.80
2022-09-05T22:10:03.411Z,1.80
2022-09-05T22:12:42.851Z,1.92
2022-09-05T22:15:28.928Z,1.98
2022-09-05T22:18:17.603Z,1.80
2022-09-05T22:20:51.277Z,2.50
2022-09-05T22:23:40.721Z,1.77
2022-09-05T22:26:11.162Z,1.90
2022-09-05T22:28:48.832Z,1.83
2022-09-05T22:31:21.711Z,1.90
2022-09-05T22:33:51.520Z,2.20
2022-09-05T22:36:20.413Z,2.00
2022-09-05T22:38:50.738Z,1.60
2022-09-05T22:41:24.921Z,1.67
2022-09-05T22:43:59.146Z,1.90
2022-09-05T22:46:30.668Z,1.83
2022-09-05T22:49:00.447Z,1.60
2022-09-05T22:51:32.444Z,1.60
2022-09-05T22:54:01.632Z,1.90
2022-09-05T22:56:33.278Z,1.98
2022-09-05T22:59:03.116Z,2.20
2022-09-05T23:01:34.119Z,1.85
2022-09-05T23:04:07.006Z,1.30
2022-09-05T23:06:37.343Z,1.60
2022-09-05T23:09:09.651Z,1.40
2022-09-05T23:11:40.576Z,2.70
2022-09-05T23:14:11.121Z,1.35
2022-09-05T23:16:39.342Z,1.50
2022-09-05T23:19:12.322Z,1.58
2022-09-05T23:21:49.190Z,1.70
2022-09-05T23:24:19.762Z,1.73
2022-09-05T23:26:49.448Z,2.22
2022-09-05T23:29:19.600Z,1.75
2022-09-05T23:31:48.988Z,1.70
2022-09-05T23:34:17.428Z,1.70
2022-09-05T23:36:46.575Z,1.88
2022-09-05T23:39:15.546Z,1.55
2022-09-05T23:41:44.080Z,1.63
2022-09-05T23:44:12.904Z,1.52
2022-09-05T23:46:41.459Z,1.58
2022-09-05T23:49:10.241Z,1.60
2022-09-05T23:51:38.765Z,1.85
2022-09-05T23:54:07.768Z,1.50
2022-09-05T23:56:37.515Z,1.70
2022-09-05T23:59:08.781Z,1.58
